Other Surface Observations
Issued by NWS Great Falls, MT

Home | Current Version | Previous Version | Text Only | Print | Product List | Glossary On
Versions: 1 2 3 4 5 6 7 8 9 10 11 12 13 14 15 16 17 18 19 20 21 22 23 24 25 26 27 28 29 30 31 32 33 34 35 36 37 38 39 40 41 42 43 44 45 46 47 48 49 50
155
SXUS55 KTFX 021908
OSOTFX

AREA AWOS OBSERVATIONS
NATIONAL WEATHER SERVICE GREAT FALLS MT
1208 PM MST Fri Dec 02 2016

METAR K6S8 021855Z AUTO 20006KT 40SM 03/M09 A3013 RMK A01 T00331094
METAR K6S8 021755Z AUTO 20005KT 40SM 02/M09 A3015 RMK A01 T00161088
METAR K7S0 021855Z AUTO 19000KT 40SM 02/M06 A3028 RMK A01 T00161055
METAR K7S1 021855Z AUTO 12010KT 40SM 00/M09 A3017 RMK A01 T00001094
METAR K97M 021855Z AUTO 22004KT 40SM M01/M04 A3012 RMK A01 T10111044
METAR K9S2 021855Z AUTO 16001KT 7SM M02/M07 A3009 RMK A01 T10221066
METAR K9S5 021855Z AUTO 22005KT 40SM 02/M19 A3017 RMK A01 T00221194
METAR KRPX 021855Z AUTO 21009KT 40SM 04/M05 A3004 RMK A01 T00381050
METAR KS01 021855Z AUTO 30002KT 40SM 02/M01 A3005 RMK A01 T00161005
METAR KS34 021855Z AUTO 19006KT 40SM 03/M06 A3026 RMK A01 T00331055
METAR KTHM 021755Z AUTO 28001KT 25SM 02/M02 A3032 RMK A01 T00161016



USA.gov is the U.S. government's official web portal to all federal, state and local government web resources and services.